sensor_id;sensor_type;location;lat;lon;timestamp;pressure;altitude;pressure_sealevel;temperature;humidity
48364;BME280;34170;54.364;18.582;2024-03-23T00:53:43;99255.13;;;8.80;100.00
48364;BME280;34170;54.364;18.582;2024-03-23T00:56:10;99223.06;;;8.70;100.00
48364;BME280;34170;54.364;18.582;2024-03-23T00:58:36;99257.59;;;9.00;100.00
48364;BME280;34170;54.364;18.582;2024-03-23T01:01:03;99254.53;;;8.94;100.00
48364;BME280;34170;54.364;18.582;2024-03-23T01:03:30;99257.06;;;8.96;100.00
48364;BME280;34170;54.364;18.582;2024-03-23T01:06:00;99245.84;;;9.01;100.00
48364;BME280;34170;54.364;18.582;2024-03-23T01:08:27;99262.69;;;8.40;100.00
48364;BME280;34170;54.364;18.582;2024-03-23T01:11:01;99218.50;;;8.18;100.00
48364;BME280;34170;54.364;18.582;2024-03-23T01:13:28;99244.34;;;8.46;100.00
48364;BME280;34170;54.364;18.582;2024-03-23T01:15:56;99272.72;;;8.38;100.00
48364;BME280;34170;54.364;18.582;2024-03-23T01:18:23;99260.66;;;8.34;100.00
48364;BME280;34170;54.364;18.582;2024-03-23T01:20:50;99221.47;;;8.33;100.00
48364;BME280;34170;54.364;18.582;2024-03-23T01:23:16;99248.97;;;8.62;100.00
48364;BME280;34170;54.364;18.582;2024-03-23T01:25:43;99265.03;;;8.53;100.00
48364;BME280;34170;54.364;18.582;2024-03-23T01:28:09;99266.25;;;8.67;100.00
48364;BME280;34170;54.364;18.582;2024-03-23T01:30:36;99262.38;;;8.62;100.00
48364;BME280;34170;54.364;18.582;2024-03-23T01:33:03;99250.56;;;8.46;100.00
48364;BME280;34170;54.364;18.582;2024-03-23T01:35:29;99257.16;;;8.60;100.00
48364;BME280;34170;54.364;18.582;2024-03-23T01:37:56;99266.25;;;8.67;100.00
48364;BME280;34170;54.364;18.582;2024-03-23T01:40:22;99266.25;;;8.67;100.00
48364;BME280;34170;54.364;18.582;2024-03-23T01:43:02;99273.78;;;8.64;100.00
48364;BME280;34170;54.364;18.582;2024-03-23T01:45:30;99234.44;;;8.64;100.00
48364;BME280;34170;54.364;18.582;2024-03-23T01:47:58;99232.75;;;8.63;100.00
48364;BME280;34170;54.364;18.582;2024-03-23T01:50:25;99280.63;;;8.84;100.00
48364;BME280;34170;54.364;18.582;2024-03-23T01:52:52;99244.34;;;8.72;100.00
48364;BME280;34170;54.364;18.582;2024-03-23T01:55:19;99259.94;;;9.03;100.00
48364;BME280;34170;54.364;18.582;2024-03-23T01:57:46;99238.91;;;8.90;100.00
48364;BME280;34170;54.364;18.582;2024-03-23T02:00:13;99240.13;;;8.95;100.00
48364;BME280;34170;54.364;18.582;2024-03-23T02:02:44;99227.81;;;8.76;100.00
48364;BME280;34170;54.364;18.582;2024-03-23T02:05:11;99242.44;;;8.90;100.00
48364;BME280;34170;54.364;18.582;2024-03-23T02:07:42;99247.91;;;9.07;100.00
48364;BME280;34170;54.364;18.582;2024-03-23T02:10:12;99234.53;;;8.89;100.00
48364;BME280;34170;54.364;18.582;2024-03-23T02:12:41;99247.16;;;8.96;100.00
48364;BME280;34170;54.364;18.582;2024-03-23T02:15:08;99214.88;;;8.72;100.00
48364;BME280;34170;54.364;18.582;2024-03-23T02:17:37;99215.22;;;8.77;100.00
48364;BME280;34170;54.364;18.582;2024-03-23T02:20:04;99235.06;;;8.92;100.00
48364;BME280;34170;54.364;18.582;2024-03-23T02:22:38;99239.59;;;8.92;100.00
48364;BME280;34170;54.364;18.582;2024-03-23T02:25:06;99238.41;;;8.86;100.00
48364;BME280;34170;54.364;18.582;2024-03-23T02:27:32;99211.81;;;8.67;100.00
48364;BME280;34170;54.364;18.582;2024-03-23T02:30:01;99236.69;;;8.85;100.00
48364;BME280;34170;54.364;18.582;2024-03-23T02:32:28;99227.72;;;8.94;100.00
48364;BME280;34170;54.364;18.582;2024-03-23T02:34:55;99218.31;;;8.90;100.00
48364;BME280;34170;54.364;18.582;2024-03-23T02:37:21;99214.69;;;9.00;100.00
48364;BME280;34170;54.364;18.582;2024-03-23T02:39:48;99183.38;;;8.74;100.00
48364;BME280;34170;54.364;18.582;2024-03-23T02:42:14;99179.13;;;8.63;100.00
48364;BME280;34170;54.364;18.582;2024-03-23T02:44:44;99194.16;;;8.90;100.00
48364;BME280;34170;54.364;18.582;2024-03-23T02:47:11;99175.59;;;8.97;100.00
48364;BME280;34170;54.364;18.582;2024-03-23T02:49:37;99201.31;;;9.16;100.00
48364;BME280;34170;54.364;18.582;2024-03-23T02:52:04;99200.44;;;9.07;100.00
48364;BME280;34170;54.364;18.582;2024-03-23T02:54:31;99200.44;;;9.07;100.00
48364;BME280;34170;54.364;18.582;2024-03-23T02:56:57;99191.50;;;8.90;100.00
48364;BME280;34170;54.364;18.582;2024-03-23T02:59:24;99194.88;;;9.01;100.00
48364;BME280;34170;54.364;18.582;2024-03-23T03:01:50;99187.19;;;9.06;100.00
48364;BME280;34170;54.364;18.582;2024-03-23T03:04:17;99187.56;;;9.11;100.00
48364;BME280;34170;54.364;18.582;2024-03-23T03:06:47;99185.53;;;9.13;100.00
48364;BME280;34170;54.364;18.582;2024-03-23T03:09:14;99197.78;;;9.15;100.00
48364;BME280;34170;54.364;18.582;2024-03-23T03:11:40;99178.94;;;8.91;100.00
48364;BME280;34170;54.364;18.582;2024-03-23T03:14:07;99200.28;;;9.09;100.00
48364;BME280;34170;54.364;18.582;2024-03-23T03:16:34;99191.56;;;9.07;100.00
48364;BME280;34170;54.364;18.582;2024-03-23T03:19:01;99184.00;;;9.02;100.00
48364;BME280;34170;54.364;18.582;2024-03-23T03:21:27;99188.69;;;9.00;100.00
48364;BME280;34170;54.364;18.582;2024-03-23T03:23:54;99187.19;;;9.06;100.00
48364;BME280;34170;54.364;18.582;2024-03-23T03:26:22;99158.16;;;8.93;100.00
48364;BME280;34170;54.364;18.582;2024-03-23T03:28:50;99178.84;;;9.17;100.00
48364;BME280;34170;54.364;18.582;2024-03-23T03:31:17;99182.19;;;9.11;100.00
48364;BME280;34170;54.364;18.582;2024-03-23T03:33:45;99176.47;;;9.06;100.00
48364;BME280;34170;54.364;18.582;2024-03-23T03:36:11;99143.84;;;8.76;100.00
48364;BME280;34170;54.364;18.582;2024-03-23T03:38:38;99155.25;;;8.78;100.00
48364;BME280;34170;54.364;18.582;2024-03-23T03:41:05;99174.47;;;9.00;100.00
48364;BME280;34170;54.364;18.582;2024-03-23T03:43:32;99182.16;;;8.94;100.00
48364;BME280;34170;54.364;18.582;2024-03-23T03:46:00;99172.25;;;8.95;100.00
48364;BME280;34170;54.364;18.582;2024-03-23T03:48:27;99164.72;;;8.99;100.00
48364;BME280;34170;54.364;18.582;2024-03-23T03:50:53;99161.53;;;8.95;100.00
48364;BME280;34170;54.364;18.582;2024-03-23T03:53:20;99137.81;;;8.74;100.00
48364;BME280;34170;54.364;18.582;2024-03-23T03:55:47;99143.16;;;8.66;100.00
48364;BME280;34170;54.364;18.582;2024-03-23T03:58:14;99173.34;;;8.76;100.00
48364;BME280;34170;54.364;18.582;2024-03-23T04:00:40;99165.63;;;8.73;100.00
48364;BME280;34170;54.364;18.582;2024-03-23T04:03:07;99153.59;;;8.77;100.00
48364;BME280;34170;54.364;18.582;2024-03-23T04:05:33;99127.50;;;8.53;100.00
48364;BME280;34170;54.364;18.582;2024-03-23T04:08:00;99154.78;;;8.48;100.00
48364;BME280;34170;54.364;18.582;2024-03-23T04:10:27;99124.63;;;8.46;100.00
48364;BME280;34170;54.364;18.582;2024-03-23T04:12:53;99131.88;;;8.54;100.00
48364;BME280;34170;54.364;18.582;2024-03-23T04:15:20;99148.00;;;8.70;100.00
48364;BME280;34170;54.364;18.582;2024-03-23T04:17:47;99108.06;;;8.51;100.00
48364;BME280;34170;54.364;18.582;2024-03-23T04:20:13;99149.19;;;8.68;100.00
48364;BME280;34170;54.364;18.582;2024-03-23T04:22:43;99119.16;;;8.56;100.00
48364;BME280;34170;54.364;18.582;2024-03-23T04:25:10;99149.50;;;8.65;100.00
48364;BME280;34170;54.364;18.582;2024-03-23T04:27:37;99144.66;;;8.68;100.00
48364;BME280;34170;54.364;18.582;2024-03-23T04:30:04;99138.84;;;8.73;100.00
48364;BME280;34170;54.364;18.582;2024-03-23T04:32:39;99133.47;;;8.73;100.00
48364;BME280;34170;54.364;18.582;2024-03-23T04:35:06;99131.47;;;8.75;100.00
48364;BME280;34170;54.364;18.582;2024-03-23T04:37:33;99127.69;;;8.51;100.00
48364;BME280;34170;54.364;18.582;2024-03-23T04:40:01;99139.81;;;8.72;100.00
48364;BME280;34170;54.364;18.582;2024-03-23T04:42:28;99127.75;;;8.68;100.00
48364;BME280;34170;54.364;18.582;2024-03-23T04:44:54;99110.78;;;8.59;100.00
48364;BME280;34170;54.364;18.582;2024-03-23T04:47:21;99123.69;;;8.64;100.00
48364;BME280;34170;54.364;18.582;2024-03-23T04:49:48;99120.19;;;8.63;100.00
48364;BME280;34170;54.364;18.582;2024-03-23T04:52:16;99101.25;;;8.65;100.00
48364;BME280;34170;54.364;18.582;2024-03-23T04:54:42;99118.69;;;8.69;100.00
48364;BME280;34170;54.364;18.582;2024-03-23T04:57:09;99134.16;;;8.75;100.00
48364;BME280;34170;54.364;18.582;2024-03-23T04:59:35;99119.34;;;8.63;100.00
48364;BME280;34170;54.364;18.582;2024-03-23T05:02:02;99121.22;;;8.70;100.00
48364;BME280;34170;54.364;18.582;2024-03-23T05:04:29;99093.91;;;8.67;100.00
48364;BME280;34170;54.364;18.582;2024-03-23T05:06:55;99135.69;;;8.94;100.00
48364;BME280;34170;54.364;18.582;2024-03-23T05:09:22;99131.34;;;8.93;100.00
48364;BME280;34170;54.364;18.582;2024-03-23T05:11:48;99128.84;;;8.91;100.00
48364;BME280;34170;54.364;18.582;2024-03-23T05:14:15;99095.44;;;8.77;100.00
48364;BME280;34170;54.364;18.582;2024-03-23T05:16:42;99101.16;;;8.83;100.00
48364;BME280;34170;54.364;18.582;2024-03-23T05:19:08;99118.78;;;8.93;100.00
48364;BME280;34170;54.364;18.582;2024-03-23T05:21:35;99123.50;;;9.00;100.00
48364;BME280;34170;54.364;18.582;2024-03-23T05:24:01;99120.59;;;8.85;100.00
48364;BME280;34170;54.364;18.582;2024-03-23T05:26:29;99118.22;;;8.82;100.00
48364;BME280;34170;54.364;18.582;2024-03-23T05:28:56;99090.41;;;8.74;100.00
48364;BME280;34170;54.364;18.582;2024-03-23T05:31:23;99082.38;;;8.83;100.00
48364;BME280;34170;54.364;18.582;2024-03-23T05:33:50;99112.19;;;8.80;100.00
48364;BME280;34170;54.364;18.582;2024-03-23T05:36:17;99093.28;;;8.81;100.00
48364;BME280;34170;54.364;18.582;2024-03-23T05:38:43;99089.72;;;8.72;100.00
48364;BME280;34170;54.364;18.582;2024-03-23T05:41:10;99106.91;;;9.04;100.00
48364;BME280;34170;54.364;18.582;2024-03-23T05:43:36;99100.38;;;8.99;100.00
48364;BME280;34170;54.364;18.582;2024-03-23T05:46:03;99068.16;;;8.90;100.00
48364;BME280;34170;54.364;18.582;2024-03-23T05:48:33;99090.59;;;8.81;100.00
48364;BME280;34170;54.364;18.582;2024-03-23T05:51:00;99093.81;;;9.01;100.00
48364;BME280;34170;54.364;18.582;2024-03-23T05:53:27;99085.63;;;9.11;100.00
48364;BME280;34170;54.364;18.582;2024-03-23T05:56:03;99057.63;;;9.13;100.00
48364;BME280;34170;54.364;18.582;2024-03-23T05:58:33;99069.88;;;9.24;100.00
48364;BME280;34170;54.364;18.582;2024-03-23T06:01:00;99062.19;;;9.29;100.00
48364;BME280;34170;54.364;18.582;2024-03-23T06:03:28;99052.47;;;9.28;100.00
48364;BME280;34170;54.364;18.582;2024-03-23T06:05:56;99051.94;;;9.00;100.00
48364;BME280;34170;54.364;18.582;2024-03-23T06:08:22;99033.00;;;9.02;100.00
48364;BME280;34170;54.364;18.582;2024-03-23T06:10:49;99076.25;;;9.31;100.00
48364;BME280;34170;54.364;18.582;2024-03-23T06:13:16;99080.63;;;9.24;100.00
48364;BME280;34170;54.364;18.582;2024-03-23T06:15:44;99084.66;;;9.28;100.00
48364;BME280;34170;54.364;18.582;2024-03-23T06:18:12;99065.84;;;9.12;100.00
48364;BME280;34170;54.364;18.582;2024-03-23T06:20:39;99045.56;;;8.93;100.00
48364;BME280;34170;54.364;18.582;2024-03-23T06:23:06;99057.03;;;8.69;100.00
48364;BME280;34170;54.364;18.582;2024-03-23T06:25:32;99079.06;;;8.97;100.00
48364;BME280;34170;54.364;18.582;2024-03-23T06:27:59;99064.53;;;9.16;100.00
48364;BME280;34170;54.364;18.582;2024-03-23T06:30:28;99070.88;;;9.15;100.00
48364;BME280;34170;54.364;18.582;2024-03-23T06:32:55;99041.53;;;9.13;100.00
48364;BME280;34170;54.364;18.582;2024-03-23T06:35:22;99061.50;;;9.19;100.00
48364;BME280;34170;54.364;18.582;2024-03-23T06:37:49;99039.38;;;9.25;100.00
48364;BME280;34170;54.364;18.582;2024-03-23T06:40:15;99035.69;;;9.34;100.00
48364;BME280;34170;54.364;18.582;2024-03-23T06:42:42;99059.16;;;9.49;100.00
48364;BME280;34170;54.364;18.582;2024-03-23T06:45:09;99060.00;;;9.41;100.00
48364;BME280;34170;54.364;18.582;2024-03-23T06:47:35;99051.59;;;9.44;100.00
48364;BME280;34170;54.364;18.582;2024-03-23T06:50:03;99049.25;;;9.49;100.00
48364;BME280;34170;54.364;18.582;2024-03-23T06:52:31;99061.69;;;9.34;100.00
48364;BME280;34170;54.364;18.582;2024-03-23T06:54:58;99067.53;;;9.29;100.00
48364;BME280;34170;54.364;18.582;2024-03-23T06:57:25;99061.53;;;9.52;100.00
48364;BME280;34170;54.364;18.582;2024-03-23T06:59:51;99028.81;;;9.15;100.00
48364;BME280;34170;54.364;18.582;2024-03-23T07:02:18;99062.19;;;9.21;100.00
48364;BME280;34170;54.364;18.582;2024-03-23T07:04:45;99067.41;;;9.39;100.00
48364;BME280;34170;54.364;18.582;2024-03-23T07:07:11;99072.25;;;9.52;100.00
48364;BME280;34170;54.364;18.582;2024-03-23T07:09:38;99070.22;;;9.70;100.00
48364;BME280;34170;54.364;18.582;2024-03-23T07:12:05;99067.38;;;9.64;100.00
48364;BME280;34170;54.364;18.582;2024-03-23T07:14:32;99075.59;;;9.79;100.00
48364;BME280;34170;54.364;18.582;2024-03-23T07:16:59;99084.81;;;9.43;100.00
48364;BME280;34170;54.364;18.582;2024-03-23T07:19:26;99075.63;;;9.62;100.00
48364;BME280;34170;54.364;18.582;2024-03-23T07:21:52;99067.22;;;9.73;100.00
48364;BME280;34170;54.364;18.582;2024-03-23T07:24:18;99047.59;;;9.73;100.00
48364;BME280;34170;54.364;18.582;2024-03-23T07:26:45;99086.50;;;9.69;100.00
48364;BME280;34170;54.364;18.582;2024-03-23T07:29:12;99086.63;;;9.92;100.00
48364;BME280;34170;54.364;18.582;2024-03-23T07:31:38;99074.91;;;9.85;100.00
48364;BME280;34170;54.364;18.582;2024-03-23T07:34:05;99079.59;;;9.91;100.00
48364;BME280;34170;54.364;18.582;2024-03-23T07:36:32;99086.94;;;10.14;100.00
48364;BME280;34170;54.364;18.582;2024-03-23T07:38:58;99082.41;;;10.06;100.00
48364;BME280;34170;54.364;18.582;2024-03-23T07:41:25;99078.22;;;10.11;100.00
48364;BME280;34170;54.364;18.582;2024-03-23T07:43:53;99082.69;;;10.27;100.00
48364;BME280;34170;54.364;18.582;2024-03-23T07:46:20;99054.25;;;9.93;100.00
48364;BME280;34170;54.364;18.582;2024-03-23T07:48:47;99074.81;;;10.26;100.00
48364;BME280;34170;54.364;18.582;2024-03-23T07:51:21;99075.19;;;10.15;100.00
48364;BME280;34170;54.364;18.582;2024-03-23T07:53:48;99047.66;;;10.13;100.00
48364;BME280;34170;54.364;18.582;2024-03-23T07:56:16;99061.38;;;10.26;100.00
48364;BME280;34170;54.364;18.582;2024-03-23T07:58:44;99041.25;;;10.22;100.00
48364;BME280;34170;54.364;18.582;2024-03-23T08:01:12;99031.06;;;10.09;100.00
48364;BME280;34170;54.364;18.582;2024-03-23T08:03:41;99042.22;;;9.73;100.00
48364;BME280;34170;54.364;18.582;2024-03-23T08:06:13;99039.03;;;9.61;100.00
48364;BME280;34170;54.364;18.582;2024-03-23T08:08:42;99046.59;;;9.66;100.00
48364;BME280;34170;54.364;18.582;2024-03-23T08:11:08;99036.34;;;9.69;100.00
48364;BME280;34170;54.364;18.582;2024-03-23T08:13:37;99006.00;;;9.36;100.00
48364;BME280;34170;54.364;18.582;2024-03-23T08:16:03;99039.31;;;9.91;100.00
48364;BME280;34170;54.364;18.582;2024-03-23T08:18:31;99032.59;;;9.87;100.00
48364;BME280;34170;54.364;18.582;2024-03-23T08:23:25;99001.13;;;9.64;100.00
48364;BME280;34170;54.364;18.582;2024-03-23T08:25:52;99020.25;;;9.61;100.00
48364;BME280;34170;54.364;18.582;2024-03-23T08:28:18;99021.19;;;9.85;100.00
48364;BME280;34170;54.364;18.582;2024-03-23T08:30:45;99022.50;;;9.97;100.00
48364;BME280;34170;54.364;18.582;2024-03-23T08:33:12;99023.47;;;10.13;100.00
48364;BME280;34170;54.364;18.582;2024-03-23T08:35:38;99015.75;;;10.18;100.00
48364;BME280;34170;54.364;18.582;2024-03-23T08:38:05;99023.75;;;10.34;99.07
48364;BME280;34170;54.364;18.582;2024-03-23T08:40:32;99003.00;;;10.11;100.00
48364;BME280;34170;54.364;18.582;2024-03-23T08:42:58;99000.38;;;9.87;100.00
48364;BME280;34170;54.364;18.582;2024-03-23T08:45:25;99006.34;;;10.14;99.83
48364;BME280;34170;54.364;18.582;2024-03-23T08:47:52;99005.63;;;10.36;97.03
48364;BME280;34170;54.364;18.582;2024-03-23T08:50:18;98991.41;;;10.11;94.96
48364;BME280;34170;54.364;18.582;2024-03-23T08:52:45;98969.19;;;10.25;95.20
48364;BME280;34170;54.364;18.582;2024-03-23T08:55:11;98998.09;;;10.23;94.79
48364;BME280;34170;54.364;18.582;2024-03-23T08:57:38;98989.00;;;10.33;93.58
48364;BME280;34170;54.364;18.582;2024-03-23T09:00:05;98983.69;;;10.56;92.74
48364;BME280;34170;54.364;18.582;2024-03-23T09:02:35;98965.88;;;10.55;92.63
48364;BME280;34170;54.364;18.582;2024-03-23T09:05:02;98989.53;;;11.29;90.20
48364;BME280;34170;54.364;18.582;2024-03-23T09:07:31;98994.00;;;11.36;88.98
48364;BME280;34170;54.364;18.582;2024-03-23T09:09:57;98997.47;;;11.45;87.30
48364;BME280;34170;54.364;18.582;2024-03-23T09:12:24;98989.63;;;11.88;86.03
48364;BME280;34170;54.364;18.582;2024-03-23T09:14:50;98993.31;;;11.87;84.90
48364;BME280;34170;54.364;18.582;2024-03-23T09:17:17;98985.28;;;11.34;88.38
48364;BME280;34170;54.364;18.582;2024-03-23T09:19:44;98966.09;;;11.52;86.88
48364;BME280;34170;54.364;18.582;2024-03-23T09:22:11;98977.47;;;11.92;85.53
48364;BME280;34170;54.364;18.582;2024-03-23T09:24:38;98982.09;;;12.43;82.15
48364;BME280;34170;54.364;18.582;2024-03-23T09:27:05;98968.34;;;12.23;78.24
48364;BME280;34170;54.364;18.582;2024-03-23T09:29:31;98934.00;;;12.47;78.58
48364;BME280;34170;54.364;18.582;2024-03-23T09:31:58;98960.13;;;12.46;75.95
48364;BME280;34170;54.364;18.582;2024-03-23T09:34:25;98957.53;;;12.96;73.20
48364;BME280;34170;54.364;18.582;2024-03-23T09:36:52;98959.59;;;12.94;70.37
48364;BME280;34170;54.364;18.582;2024-03-23T09:39:19;98964.41;;;12.99;70.32
48364;BME280;34170;54.364;18.582;2024-03-23T09:41:45;98944.34;;;12.28;72.55
48364;BME280;34170;54.364;18.582;2024-03-23T09:44:12;98943.88;;;12.39;74.72
48364;BME280;34170;54.364;18.582;2024-03-23T09:46:39;98927.75;;;11.80;73.95
48364;BME280;34170;54.364;18.582;2024-03-23T09:49:07;98926.94;;;11.64;77.09
48364;BME280;34170;54.364;18.582;2024-03-23T09:51:36;98958.28;;;11.42;78.04
48364;BME280;34170;54.364;18.582;2024-03-23T09:54:03;98925.81;;;11.59;76.42
48364;BME280;34170;54.364;18.582;2024-03-23T09:56:30;98957.03;;;11.83;75.52
48364;BME280;34170;54.364;18.582;2024-03-23T09:59:02;98955.44;;;11.89;74.20
48364;BME280;34170;54.364;18.582;2024-03-23T10:01:30;98950.38;;;11.41;76.11
48364;BME280;34170;54.364;18.582;2024-03-23T10:03:57;98931.00;;;11.60;74.45
48364;BME280;34170;54.364;18.582;2024-03-23T10:06:24;98947.25;;;11.82;74.09
48364;BME280;34170;54.364;18.582;2024-03-23T10:08:53;98951.75;;;12.05;74.95
48364;BME280;34170;54.364;18.582;2024-03-23T10:11:21;98947.47;;;11.95;72.79
48364;BME280;34170;54.364;18.582;2024-03-23T10:13:47;98943.28;;;11.78;73.38
48364;BME280;34170;54.364;18.582;2024-03-23T10:16:22;98945.78;;;11.94;71.87
48364;BME280;34170;54.364;18.582;2024-03-23T10:18:49;98944.41;;;11.98;72.56
48364;BME280;34170;54.364;18.582;2024-03-23T10:21:16;98948.28;;;12.26;70.71
48364;BME280;34170;54.364;18.582;2024-03-23T10:23:43;98942.22;;;12.38;70.48
48364;BME280;34170;54.364;18.582;2024-03-23T10:26:21;98938.91;;;12.22;70.33
48364;BME280;34170;54.364;18.582;2024-03-23T10:29:00;98931.00;;;12.05;68.72
48364;BME280;34170;54.364;18.582;2024-03-23T10:31:28;98935.81;;;12.61;66.39
48364;BME280;34170;54.364;18.582;2024-03-23T10:33:55;98937.84;;;12.59;67.01
48364;BME280;34170;54.364;18.582;2024-03-23T10:36:23;98904.09;;;12.63;66.62
48364;BME280;34170;54.364;18.582;2024-03-23T10:38:51;98894.59;;;12.46;64.99
48364;BME280;34170;54.364;18.582;2024-03-23T10:41:19;98909.59;;;12.55;65.73
48364;BME280;34170;54.364;18.582;2024-03-23T10:43:46;98911.22;;;12.92;65.20
48364;BME280;34170;54.364;18.582;2024-03-23T10:46:13;98907.69;;;12.70;65.67
48364;BME280;34170;54.364;18.582;2024-03-23T10:48:40;98897.97;;;12.97;65.10
48364;BME280;34170;54.364;18.582;2024-03-23T10:51:08;98879.31;;;12.74;64.28
48364;BME280;34170;54.364;18.582;2024-03-23T10:53:35;98866.47;;;11.37;70.45
48364;BME280;34170;54.364;18.582;2024-03-23T10:56:04;98882.91;;;12.02;68.26
48364;BME280;34170;54.364;18.582;2024-03-23T10:58:41;98896.47;;;12.30;66.72
48364;BME280;34170;54.364;18.582;2024-03-23T11:01:12;98900.97;;;12.23;66.91
48364;BME280;34170;54.364;18.582;2024-03-23T11:03:47;98893.97;;;11.62;69.87
48364;BME280;34170;54.364;18.582;2024-03-23T11:06:34;98896.00;;;11.31;74.07
48364;BME280;34170;54.364;18.582;2024-03-23T11:09:00;98897.56;;;11.25;72.98
48364;BME280;34170;54.364;18.582;2024-03-23T11:11:27;98868.50;;;10.44;77.74
48364;BME280;34170;54.364;18.582;2024-03-23T11:13:57;98884.38;;;10.77;76.91
48364;BME280;34170;54.364;18.582;2024-03-23T11:16:28;98893.22;;;10.86;76.25
48364;BME280;34170;54.364;18.582;2024-03-23T11:19:36;98885.41;;;11.14;74.64
48364;BME280;34170;54.364;18.582;2024-03-23T11:22:04;98885.41;;;11.29;74.32
48364;BME280;34170;54.364;18.582;2024-03-23T11:24:31;98878.81;;;11.17;74.69
48364;BME280;34170;54.364;18.582;2024-03-23T11:26:59;98881.91;;;10.91;76.30
48364;BME280;34170;54.364;18.582;2024-03-23T11:29:30;98883.78;;;11.05;76.62
48364;BME280;34170;54.364;18.582;2024-03-23T11:31:57;98872.34;;;11.56;75.52
48364;BME280;34170;54.364;18.582;2024-03-23T11:34:24;98881.06;;;11.88;71.54
48364;BME280;34170;54.364;18.582;2024-03-23T11:37:03;98865.06;;;11.86;71.70
48364;BME280;34170;54.364;18.582;2024-03-23T11:39:30;98866.28;;;11.98;70.08
48364;BME280;34170;54.364;18.582;2024-03-23T11:41:57;98864.00;;;12.17;69.86
48364;BME280;34170;54.364;18.582;2024-03-23T11:44:26;98872.94;;;12.39;67.44
48364;BME280;34170;54.364;18.582;2024-03-23T11:46:53;98848.41;;;12.34;69.74
48364;BME280;34170;54.364;18.582;2024-03-23T11:49:26;98854.66;;;12.77;66.39
48364;BME280;34170;54.364;18.582;2024-03-23T11:51:55;98856.72;;;13.04;65.18
48364;BME280;34170;54.364;18.582;2024-03-23T11:54:26;98829.50;;;12.99;62.78
48364;BME280;34170;54.364;18.582;2024-03-23T11:57:00;98850.81;;;13.43;61.18
48364;BME280;34170;54.364;18.582;2024-03-23T11:59:35;98854.28;;;13.37;61.94
48364;BME280;34170;54.364;18.582;2024-03-23T12:02:20;98854.38;;;12.94;64.53
48364;BME280;34170;54.364;18.582;2024-03-23T12:04:47;98852.06;;;13.19;63.69
48364;BME280;34170;54.364;18.582;2024-03-23T12:07:14;98836.53;;;12.07;67.91
48364;BME280;34170;54.364;18.582;2024-03-23T12:09:41;98832.84;;;11.78;71.86
48364;BME280;34170;54.364;18.582;2024-03-23T12:12:16;98826.13;;;11.89;72.71
48364;BME280;34170;54.364;18.582;2024-03-23T12:15:04;98831.31;;;12.05;70.60
48364;BME280;34170;54.364;18.582;2024-03-23T12:17:32;98812.19;;;11.34;73.81
48364;BME280;34170;54.364;18.582;2024-03-23T12:19:59;98836.75;;;11.60;73.03
48364;BME280;34170;54.364;18.582;2024-03-23T12:22:25;98817.59;;;10.20;81.97
48364;BME280;34170;54.364;18.582;2024-03-23T12:24:52;98828.44;;;10.35;82.67
48364;BME280;34170;54.364;18.582;2024-03-23T12:27:19;98823.88;;;9.81;91.80
48364;BME280;34170;54.364;18.582;2024-03-23T12:29:45;98814.66;;;10.06;90.03
48364;BME280;34170;54.364;18.582;2024-03-23T12:32:13;98805.06;;;10.35;89.94
48364;BME280;34170;54.364;18.582;2024-03-23T12:34:40;98794.81;;;10.39;91.59
48364;BME280;34170;54.364;18.582;2024-03-23T12:37:08;98814.97;;;10.11;91.85
48364;BME280;34170;54.364;18.582;2024-03-23T12:39:35;98809.28;;;10.06;90.45
48364;BME280;34170;54.364;18.582;2024-03-23T12:42:03;98805.63;;;9.99;92.27
48364;BME280;34170;54.364;18.582;2024-03-23T12:44:30;98783.56;;;10.12;91.01
48364;BME280;34170;54.364;18.582;2024-03-23T12:46:57;98796.50;;;10.08;90.16
48364;BME280;34170;54.364;18.582;2024-03-23T12:49:23;98785.78;;;10.32;91.87
48364;BME280;34170;54.364;18.582;2024-03-23T12:51:55;98776.19;;;10.14;93.59
48364;BME280;34170;54.364;18.582;2024-03-23T12:54:25;98782.59;;;10.51;91.27
48364;BME280;34170;54.364;18.582;2024-03-23T12:56:52;98764.22;;;10.17;94.35
48364;BME280;34170;54.364;18.582;2024-03-23T12:59:19;98735.69;;;9.69;97.00
48364;BME280;34170;54.364;18.582;2024-03-23T13:01:45;98762.66;;;9.99;99.45
48364;BME280;34170;54.364;18.582;2024-03-23T13:04:12;98753.28;;;9.01;100.00
48364;BME280;34170;54.364;18.582;2024-03-23T13:06:39;98731.31;;;9.06;100.00
48364;BME280;34170;54.364;18.582;2024-03-23T13:09:06;98750.09;;;8.97;100.00
48364;BME280;34170;54.364;18.582;2024-03-23T13:11:32;98727.38;;;9.56;100.00
48364;BME280;34170;54.364;18.582;2024-03-23T13:13:59;98734.78;;;8.75;100.00
48364;BME280;34170;54.364;18.582;2024-03-23T13:16:26;98766.38;;;9.75;98.35
48364;BME280;34170;54.364;18.582;2024-03-23T13:18:52;98772.16;;;9.87;98.12
48364;BME280;34170;54.364;18.582;2024-03-23T13:21:19;98744.97;;;8.80;100.00
48364;BME280;34170;54.364;18.582;2024-03-23T13:23:48;98765.38;;;9.37;100.00
48364;BME280;34170;54.364;18.582;2024-03-23T13:26:17;98770.28;;;9.64;96.15
48364;BME280;34170;54.364;18.582;2024-03-23T13:28:43;98775.78;;;9.94;97.33
48364;BME280;34170;54.364;18.582;2024-03-23T13:31:11;98771.94;;;10.20;94.85
48364;BME280;34170;54.364;18.582;2024-03-23T13:33:37;98773.13;;;10.40;93.58
48364;BME280;34170;54.364;18.582;2024-03-23T13:36:04;98781.91;;;9.80;95.88
48364;BME280;34170;54.364;18.582;2024-03-23T13:38:31;98764.53;;;9.99;95.67
48364;BME280;34170;54.364;18.582;2024-03-23T13:41:01;98739.84;;;9.09;100.00
48364;BME280;34170;54.364;18.582;2024-03-23T13:43:30;98759.06;;;8.65;100.00
48364;BME280;34170;54.364;18.582;2024-03-23T13:45:58;98761.75;;;8.32;100.00
48364;BME280;34170;54.364;18.582;2024-03-23T13:48:26;98761.91;;;8.64;100.00